Time;durP1;ratioP1;P1;durP2;ratioP2;P2;SDS_P1;SDS_P2;PMS_P1;PMS_P2;Temp;Humidity;BMP_temperature;BMP_pressure;BME280_temperature;BME280_humidity;BME280_pressure;Samples;Min_cycle;Max_cycle;Signal;HPM_P1;HPM_P2
2020/12/13 00:02:20;;;;;;;72.97;33.75;;;8.90;99.90;;;;;;5056430;28;20544;-76
2020/12/13 00:04:47;;;;;;;73.40;35.08;;;8.90;99.90;;;;;;5055440;28;20053;-76
2020/12/13 00:07:14;;;;;;;74.57;33.28;;;9.00;99.90;;;;;;5055177;28;20060;-77
2020/12/13 00:09:40;;;;;;;69.32;33.67;;;8.90;99.90;;;;;;5055522;28;20085;-77
2020/12/13 00:12:07;;;;;;;72.80;34.17;;;9.00;99.90;;;;;;5055169;28;20339;-76
2020/12/13 00:14:34;;;;;;;74.75;33.83;;;9.00;99.90;;;;;;5058931;28;20080;-77
2020/12/13 00:17:01;;;;;;;69.50;33.80;;;9.00;99.90;;;;;;5065429;28;20101;-76
2020/12/13 00:19:28;;;;;;;71.75;33.97;;;9.00;99.90;;;;;;5063164;28;20091;-77
2020/12/13 00:21:56;;;;;;;72.53;32.85;;;9.00;99.90;;;;;;5065892;28;20108;-76
2020/12/13 00:24:23;;;;;;;69.60;32.42;;;9.00;99.90;;;;;;5064816;28;20088;-78
2020/12/13 00:26:50;;;;;;;67.65;32.35;;;9.00;99.90;;;;;;5059250;28;20076;-76
2020/12/13 00:29:17;;;;;;;76.55;32.58;;;9.00;99.90;;;;;;5064279;28;20049;-76
2020/12/13 00:31:44;;;;;;;67.20;31.83;;;9.10;99.90;;;;;;5061189;28;20048;-75
2020/12/13 00:34:11;;;;;;;59.28;31.33;;;9.10;99.90;;;;;;5054820;28;20106;-77
2020/12/13 00:36:38;;;;;;;62.58;31.27;;;9.10;99.90;;;;;;5057515;28;20044;-78
2020/12/13 00:39:05;;;;;;;60.88;30.50;;;9.10;99.90;;;;;;5057668;28;20128;-76
2020/12/13 00:41:32;;;;;;;58.45;30.30;;;9.20;99.90;;;;;;5059527;28;20076;-76
2020/12/13 00:43:58;;;;;;;62.13;31.02;;;9.20;99.90;;;;;;5062582;28;20131;-75
2020/12/13 00:46:25;;;;;;;60.60;29.13;;;9.10;99.90;;;;;;5059986;28;20560;-76
2020/12/13 00:48:51;;;;;;;53.85;28.45;;;9.10;99.90;;;;;;5065085;28;20083;-76
2020/12/13 00:51:25;;;;;;;55.70;28.65;;;9.10;99.90;;;;;;5057942;28;20123;-76
2020/12/13 00:53:53;;;;;;;51.85;26.85;;;9.20;99.90;;;;;;5063222;28;20076;-76
2020/12/13 00:56:19;;;;;;;48.45;26.65;;;9.20;99.90;;;;;;5063326;28;20079;-77
2020/12/13 00:58:46;;;;;;;46.65;26.33;;;9.20;99.90;;;;;;5051902;28;20080;-76
2020/12/13 01:01:12;;;;;;;47.50;26.25;;;9.10;99.90;;;;;;5051643;28;20178;-76
2020/12/13 01:03:38;;;;;;;53.05;26.63;;;9.10;99.90;;;;;;5051571;28;20509;-78
2020/12/13 01:06:05;;;;;;;52.72;27.75;;;9.10;99.90;;;;;;5060094;28;20072;-77
2020/12/13 01:08:31;;;;;;;51.38;28.85;;;9.10;99.90;;;;;;5061894;28;20162;-76
2020/12/13 01:10:59;;;;;;;55.03;28.20;;;9.10;99.90;;;;;;5060749;28;20102;-77
2020/12/13 01:13:25;;;;;;;49.40;27.20;;;9.10;99.90;;;;;;5060326;28;20149;-80
2020/12/13 01:15:53;;;;;;;54.78;27.80;;;9.10;99.90;;;;;;5060688;28;20235;-78
2020/12/13 01:18:20;;;;;;;52.92;30.02;;;9.10;99.90;;;;;;5057486;28;20136;-78
2020/12/13 01:20:46;;;;;;;54.53;30.10;;;9.10;99.90;;;;;;5058106;28;20150;-75
2020/12/13 01:23:13;;;;;;;55.60;30.55;;;9.10;99.90;;;;;;5050519;28;20569;-78
2020/12/13 01:25:39;;;;;;;54.50;30.10;;;9.00;99.90;;;;;;5052120;28;20465;-79
2020/12/13 01:28:06;;;;;;;55.25;30.50;;;9.00;99.90;;;;;;5051039;28;20135;-78
2020/12/13 01:30:32;;;;;;;54.80;31.25;;;9.00;99.90;;;;;;5051285;28;20148;-78
2020/12/13 01:32:59;;;;;;;53.22;30.55;;;9.00;99.90;;;;;;5050869;28;20092;-78
2020/12/13 01:35:25;;;;;;;54.05;29.67;;;9.10;99.90;;;;;;5051395;28;20499;-78
2020/12/13 01:37:52;;;;;;;55.58;29.92;;;9.00;99.90;;;;;;5050538;28;20465;-78
2020/12/13 01:40:19;;;;;;;56.20;30.02;;;9.10;99.90;;;;;;5050761;28;20524;-78
2020/12/13 01:42:46;;;;;;;54.92;29.25;;;9.00;99.90;;;;;;5050393;28;20513;-78
2020/12/13 01:45:18;;;;;;;55.40;29.33;;;9.00;99.90;;;;;;5050798;28;20124;-78
2020/12/13 01:47:45;;;;;;;61.97;30.03;;;9.00;99.90;;;;;;5050724;28;20055;-78
2020/12/13 01:50:22;;;;;;;54.95;28.27;;;9.00;99.90;;;;;;5050902;28;20785;-78
2020/12/13 01:52:48;;;;;;;52.13;27.63;;;9.00;99.90;;;;;;5050729;28;20501;-77
2020/12/13 01:55:17;;;;;;;53.20;27.48;;;9.00;99.90;;;;;;5051039;28;20426;-78
2020/12/13 01:57:51;;;;;;;55.85;27.95;;;9.00;99.90;;;;;;5050600;28;20048;-79
2020/12/13 02:00:19;;;;;;;58.05;29.23;;;9.00;99.90;;;;;;5050679;28;20139;-80
2020/12/13 02:02:48;;;;;;;57.10;29.17;;;9.00;99.90;;;;;;5050477;28;20539;-78
2020/12/13 02:05:15;;;;;;;54.67;28.83;;;9.00;99.90;;;;;;5051155;28;20085;-78
2020/12/13 02:10:11;;;;;;;50.30;28.17;;;9.00;99.90;;;;;;5028705;28;20048;-75
2020/12/13 02:12:38;;;;;;;48.70;29.58;;;9.00;99.90;;;;;;5030545;28;20136;-74
2020/12/13 02:15:06;;;;;;;53.80;29.20;;;9.00;99.90;;;;;;5031435;28;20081;-75
2020/12/13 02:17:36;;;;;;;44.92;26.33;;;9.00;99.90;;;;;;5029170;28;20128;-75
2020/12/13 02:20:07;;;;;;;47.38;27.00;;;9.00;99.90;;;;;;5011883;28;20088;-76
2020/12/13 02:22:39;;;;;;;46.80;27.17;;;9.00;99.90;;;;;;5011891;28;20096;-77
2020/12/13 02:25:10;;;;;;;48.53;26.65;;;8.90;99.90;;;;;;5011884;28;20573;-77
2020/12/13 02:27:36;;;;;;;46.28;26.25;;;8.90;99.90;;;;;;5011969;28;20133;-77
2020/12/13 02:30:04;;;;;;;43.88;25.25;;;8.90;99.90;;;;;;5012069;28;20085;-78
2020/12/13 02:32:31;;;;;;;46.47;25.60;;;8.90;99.90;;;;;;5012028;28;20138;-78
2020/12/13 02:34:57;;;;;;;42.30;24.75;;;8.90;99.90;;;;;;5012020;28;20128;-77
2020/12/13 02:37:24;;;;;;;42.97;26.13;;;8.90;99.90;;;;;;5011767;28;20573;-77
2020/12/13 02:39:51;;;;;;;46.33;26.17;;;8.90;99.90;;;;;;5012216;28;20081;-77
2020/12/13 02:42:17;;;;;;;44.25;25.67;;;8.90;99.90;;;;;;5012751;28;20486;-77
2020/12/13 02:44:44;;;;;;;45.05;26.27;;;8.90;99.90;;;;;;5011636;28;20155;-77
2020/12/13 02:47:10;;;;;;;47.05;26.52;;;8.80;99.90;;;;;;5011708;28;20100;-77
2020/12/13 02:49:40;;;;;;;42.63;26.48;;;8.80;99.90;;;;;;5016899;28;20175;-77
2020/12/13 02:52:07;;;;;;;41.85;25.90;;;8.80;99.90;;;;;;5019148;28;20545;-77
2020/12/13 02:54:34;;;;;;;39.10;24.40;;;8.90;99.90;;;;;;5017823;28;20139;-78
2020/12/13 02:57:01;;;;;;;40.90;24.67;;;8.90;99.90;;;;;;5015194;28;20082;-77
2020/12/13 02:59:27;;;;;;;41.25;25.60;;;8.90;99.90;;;;;;5014939;28;20623;-77
2020/12/13 03:01:54;;;;;;;42.78;25.90;;;8.90;99.90;;;;;;5015065;28;20133;-78
2020/12/13 03:04:20;;;;;;;42.47;26.75;;;9.00;99.90;;;;;;5015281;28;20129;-78
2020/12/13 03:06:46;;;;;;;43.83;27.08;;;9.00;99.90;;;;;;5015328;28;20536;-78
2020/12/13 03:09:13;;;;;;;44.30;26.27;;;9.00;99.90;;;;;;5014807;28;20133;-77
2020/12/13 03:11:39;;;;;;;44.42;26.33;;;9.00;99.90;;;;;;5015060;28;20136;-78
2020/12/13 03:14:07;;;;;;;47.38;27.08;;;9.00;99.90;;;;;;5014454;28;20129;-77
2020/12/13 03:16:33;;;;;;;41.30;26.00;;;9.00;99.90;;;;;;5015100;28;20053;-78
2020/12/13 03:18:59;;;;;;;45.95;26.67;;;9.00;99.90;;;;;;5015871;28;20495;-78
2020/12/13 03:21:26;;;;;;;47.65;27.67;;;9.00;99.90;;;;;;5015028;28;20151;-77
2020/12/13 03:23:52;;;;;;;42.40;27.02;;;9.00;99.90;;;;;;5014515;28;20134;-77
2020/12/13 03:26:18;;;;;;;47.13;26.98;;;9.00;99.90;;;;;;5014437;28;20085;-77
2020/12/13 03:28:45;;;;;;;45.28;26.42;;;8.90;99.90;;;;;;5014200;28;20137;-75
2020/12/13 03:31:12;;;;;;;42.47;26.67;;;8.90;99.90;;;;;;5014159;28;20050;-77
2020/12/13 03:33:38;;;;;;;43.60;26.05;;;9.00;99.90;;;;;;5014565;28;20129;-77
2020/12/13 03:36:05;;;;;;;38.63;23.77;;;9.00;99.90;;;;;;5014125;28;20081;-77
2020/12/13 03:38:31;;;;;;;41.25;24.83;;;9.00;99.90;;;;;;5015276;28;20479;-78
2020/12/13 03:40:58;;;;;;;39.63;23.45;;;9.10;99.90;;;;;;5014727;28;20574;-78
2020/12/13 03:43:24;;;;;;;44.25;25.25;;;9.00;99.90;;;;;;5014883;28;20136;-77
2020/12/13 03:45:50;;;;;;;40.38;22.92;;;9.00;99.90;;;;;;5014527;28;20136;-77
2020/12/13 03:48:18;;;;;;;35.85;23.45;;;9.10;99.90;;;;;;5014117;28;20092;-77
2020/12/13 03:50:44;;;;;;;40.70;23.20;;;9.00;99.90;;;;;;5013785;28;20137;-77
2020/12/13 03:53:12;;;;;;;38.28;23.05;;;8.90;99.90;;;;;;5013870;28;20148;-77
2020/12/13 03:55:39;;;;;;;36.70;22.63;;;8.90;99.90;;;;;;5014297;28;20129;-77
2020/12/13 03:58:06;;;;;;;38.60;21.02;;;8.90;99.90;;;;;;5014294;28;20092;-74
2020/12/13 04:00:33;;;;;;;36.75;22.15;;;8.80;99.90;;;;;;5013972;28;20519;-77
2020/12/13 04:03:02;;;;;;;37.90;22.20;;;8.80;99.90;;;;;;5014249;28;20148;-77
2020/12/13 04:05:29;;;;;;;38.78;22.23;;;8.80;99.90;;;;;;5014187;28;20061;-77
2020/12/13 04:07:55;;;;;;;39.03;24.40;;;8.80;99.90;;;;;;5010932;28;20128;-77
2020/12/13 04:10:22;;;;;;;41.88;24.55;;;8.80;99.90;;;;;;5013260;28;20568;-77
2020/12/13 04:12:48;;;;;;;43.20;26.85;;;8.80;99.90;;;;;;5012501;28;20140;-78
2020/12/13 04:15:15;;;;;;;45.28;25.27;;;8.80;99.90;;;;;;5013791;28;20446;-77
2020/12/13 04:17:41;;;;;;;42.08;24.85;;;8.90;99.90;;;;;;5012847;28;20085;-76
2020/12/13 04:20:09;;;;;;;40.25;24.73;;;8.80;99.90;;;;;;5012966;28;20085;-76
2020/12/13 04:22:37;;;;;;;37.50;25.13;;;8.80;99.90;;;;;;5013001;28;20240;-76
2020/12/13 04:25:04;;;;;;;41.95;25.20;;;8.80;99.90;;;;;;5011825;28;20056;-76
2020/12/13 04:27:31;;;;;;;40.47;24.50;;;8.80;99.90;;;;;;5012903;28;20060;-76
2020/12/13 04:29:57;;;;;;;40.88;25.58;;;8.80;99.90;;;;;;5012874;28;20137;-77
2020/12/13 04:32:24;;;;;;;37.10;22.38;;;8.80;99.90;;;;;;5012287;28;20088;-76
2020/12/13 04:34:51;;;;;;;33.00;22.25;;;8.80;99.90;;;;;;5007060;28;20141;-76
2020/12/13 04:37:18;;;;;;;32.80;22.33;;;8.90;99.90;;;;;;5011111;28;20084;-76
2020/12/13 04:39:45;;;;;;;33.45;21.13;;;8.90;99.90;;;;;;5012260;28;20136;-76
2020/12/13 04:42:11;;;;;;;31.35;19.13;;;8.80;99.90;;;;;;5011728;28;20460;-76
2020/12/13 04:44:38;;;;;;;30.83;19.42;;;8.90;99.90;;;;;;5012171;28;20132;-76
2020/12/13 04:47:06;;;;;;;31.65;20.02;;;8.80;99.90;;;;;;5005797;28;20049;-77
2020/12/13 04:49:34;;;;;;;33.35;20.65;;;8.80;99.90;;;;;;5011879;28;20483;-77
2020/12/13 04:52:02;;;;;;;30.58;20.23;;;8.80;99.90;;;;;;5011404;28;20480;-77
2020/12/13 04:54:30;;;;;;;31.98;20.60;;;8.80;99.90;;;;;;5012145;28;20096;-77
2020/12/13 04:56:59;;;;;;;30.58;20.25;;;8.80;99.90;;;;;;5012032;28;20049;-76
2020/12/13 04:59:26;;;;;;;30.50;19.83;;;8.70;99.90;;;;;;5012251;28;20088;-77
2020/12/13 05:01:53;;;;;;;30.63;20.73;;;8.80;99.90;;;;;;5011173;28;20104;-77
2020/12/13 05:04:20;;;;;;;30.42;19.02;;;8.80;99.90;;;;;;5012366;28;20259;-77
2020/12/13 05:06:47;;;;;;;33.35;19.55;;;8.70;99.90;;;;;;5012459;28;20473;-77
2020/12/13 05:09:15;;;;;;;32.00;19.50;;;8.80;99.90;;;;;;5012021;28;20085;-77
2020/12/13 05:11:42;;;;;;;29.27;18.98;;;8.70;99.90;;;;;;5010515;28;20117;-77
2020/12/13 05:14:10;;;;;;;28.65;18.50;;;8.70;99.90;;;;;;5012092;28;20137;-77
2020/12/13 05:16:36;;;;;;;29.35;20.33;;;8.80;99.90;;;;;;5012101;28;20137;-77
2020/12/13 05:19:05;;;;;;;30.77;19.50;;;8.80;99.90;;;;;;5012004;28;20172;-75
2020/12/13 05:21:32;;;;;;;33.13;20.05;;;8.80;99.90;;;;;;5011389;28;20132;-74
2020/12/13 05:24:00;;;;;;;31.75;20.00;;;8.80;99.90;;;;;;5011666;28;20490;-75
2020/12/13 05:26:27;;;;;;;29.02;19.48;;;8.70;99.90;;;;;;5011707;28;20062;-75
2020/12/13 05:28:54;;;;;;;31.55;21.08;;;8.80;99.90;;;;;;5012154;28;20104;-76
2020/12/13 05:31:24;;;;;;;28.27;19.55;;;8.70;99.90;;;;;;5011243;28;20085;-76
2020/12/13 05:33:53;;;;;;;27.73;19.58;;;8.70;99.90;;;;;;5012086;28;20088;-76
2020/12/13 05:36:20;;;;;;;32.75;21.13;;;8.70;99.90;;;;;;5011706;28;20052;-76
2020/12/13 05:38:47;;;;;;;32.33;20.15;;;8.70;99.90;;;;;;5011675;28;20088;-75
2020/12/13 05:41:15;;;;;;;32.72;20.52;;;8.70;99.90;;;;;;5010654;28;20062;-76
2020/12/13 05:43:46;;;;;;;28.00;19.83;;;8.70;99.90;;;;;;5011886;28;20053;-76
2020/12/13 05:49:11;;;;;;;24.88;17.52;;;8.60;99.90;;;;;;5011540;28;20132;-76
2020/12/13 05:51:40;;;;;;;31.88;19.27;;;8.60;99.90;;;;;;5010907;28;20050;-76
2020/12/13 05:54:11;;;;;;;35.72;17.80;;;8.60;99.90;;;;;;5011507;28;20099;-76
2020/12/13 05:56:39;;;;;;;27.90;19.20;;;8.50;99.90;;;;;;5011941;28;20056;-75
2020/12/13 05:59:06;;;;;;;29.33;18.77;;;8.50;99.90;;;;;;5011310;28;20089;-75
2020/12/13 06:01:35;;;;;;;28.33;19.13;;;8.40;99.90;;;;;;5010460;28;20050;-75
2020/12/13 06:04:10;;;;;;;32.17;19.23;;;8.30;99.90;;;;;;5011475;28;20138;-75
2020/12/13 06:06:42;;;;;;;31.73;18.40;;;8.30;99.90;;;;;;5011794;28;20120;-77
2020/12/13 06:09:09;;;;;;;28.87;19.03;;;8.30;99.90;;;;;;5011279;28;20132;-76
2020/12/13 06:11:42;;;;;;;30.75;19.85;;;8.30;99.90;;;;;;5010594;28;20137;-76
2020/12/13 06:14:14;;;;;;;33.30;18.52;;;8.30;99.90;;;;;;5011641;28;20158;-76
2020/12/13 06:16:41;;;;;;;31.52;19.30;;;8.30;99.90;;;;;;5011322;28;20529;-76
2020/12/13 06:19:11;;;;;;;34.05;19.83;;;8.20;99.90;;;;;;5011534;28;20137;-75
2020/12/13 06:21:39;;;;;;;30.25;19.58;;;8.20;99.90;;;;;;5010429;28;20132;-75
2020/12/13 06:24:07;;;;;;;36.05;19.80;;;8.20;99.90;;;;;;5014420;28;20077;-76
2020/12/13 06:26:34;;;;;;;35.47;20.02;;;8.20;99.90;;;;;;5015338;28;20054;-76
2020/12/13 06:29:02;;;;;;;36.03;21.90;;;8.30;99.90;;;;;;5014899;28;20077;-76
2020/12/13 06:31:29;;;;;;;34.53;21.05;;;8.30;99.90;;;;;;5015415;28;20137;-75
2020/12/13 06:33:55;;;;;;;35.88;21.33;;;8.20;99.90;;;;;;5017009;28;20101;-76
2020/12/13 06:36:24;;;;;;;43.05;21.98;;;8.20;99.90;;;;;;5016163;28;20129;-76
2020/12/13 06:38:55;;;;;;;33.20;20.55;;;8.20;99.90;;;;;;5012526;28;20132;-76
2020/12/13 06:41:24;;;;;;;35.38;20.92;;;8.20;99.90;;;;;;5015019;28;20042;-75
2020/12/13 06:44:01;;;;;;;36.55;20.85;;;8.20;99.90;;;;;;5015629;28;20081;-76
2020/12/13 06:46:29;;;;;;;33.70;20.73;;;8.20;99.90;;;;;;5014804;28;20108;-76
2020/12/13 06:48:56;;;;;;;35.45;20.98;;;8.10;99.90;;;;;;5015206;28;20133;-76
2020/12/13 06:51:31;;;;;;;39.47;22.23;;;8.10;99.90;;;;;;5014513;28;20136;-77
2020/12/13 06:53:59;;;;;;;37.83;22.27;;;8.00;99.90;;;;;;5015443;28;20089;-77
2020/12/13 06:56:26;;;;;;;38.30;21.17;;;8.00;99.90;;;;;;5015092;28;20092;-77
2020/12/13 06:58:56;;;;;;;41.42;22.60;;;8.00;99.90;;;;;;5015884;28;20085;-77
2020/12/13 07:01:25;;;;;;;41.70;22.50;;;8.00;99.90;;;;;;5015727;28;20050;-77
2020/12/13 07:03:53;;;;;;;39.03;22.45;;;8.00;99.90;;;;;;5015042;28;20085;-77
2020/12/13 07:06:22;;;;;;;37.50;24.80;;;8.00;99.90;;;;;;5015223;28;20053;-78
2020/12/13 07:08:54;;;;;;;42.33;25.75;;;8.00;99.90;;;;;;5015495;28;20054;-77
2020/12/13 07:11:23;;;;;;;41.37;26.13;;;8.10;99.90;;;;;;5014814;28;20172;-77
2020/12/13 07:13:50;;;;;;;67.68;40.95;;;8.10;99.90;;;;;;5014924;28;20144;-77
2020/12/13 07:16:31;;;;;;;41.72;24.60;;;8.10;99.90;;;;;;5014604;28;20132;-76
2020/12/13 07:19:03;;;;;;;37.83;23.55;;;8.10;99.90;;;;;;5014588;28;20050;-77
2020/12/13 07:21:29;;;;;;;41.65;23.90;;;8.10;99.90;;;;;;5014269;28;20124;-76
2020/12/13 07:24:00;;;;;;;39.53;23.80;;;8.00;99.90;;;;;;5014500;28;20081;-77
2020/12/13 07:26:28;;;;;;;38.42;23.73;;;8.00;99.90;;;;;;5014423;28;20137;-77
2020/12/13 07:28:55;;;;;;;39.40;22.75;;;8.00;99.90;;;;;;5014368;28;20137;-76
2020/12/13 07:31:23;;;;;;;37.33;22.45;;;8.00;99.90;;;;;;5014003;28;20096;-77
2020/12/13 07:33:50;;;;;;;34.55;21.85;;;8.10;99.90;;;;;;5014447;28;20425;-77
2020/12/13 07:36:16;;;;;;;37.05;22.27;;;8.10;99.90;;;;;;5013728;28;20136;-78
2020/12/13 07:38:43;;;;;;;37.88;21.63;;;8.10;99.90;;;;;;5013948;28;20132;-77
2020/12/13 07:41:15;;;;;;;39.38;21.73;;;8.10;99.90;;;;;;5013835;28;20155;-77
2020/12/13 07:43:55;;;;;;;38.30;22.10;;;8.10;99.90;;;;;;5014541;28;20161;-77
2020/12/13 07:46:22;;;;;;;35.30;21.42;;;8.10;99.90;;;;;;5014349;28;20082;-75
2020/12/13 07:48:58;;;;;;;41.55;24.73;;;8.20;99.90;;;;;;5014564;28;20153;-78
2020/12/13 07:51:25;;;;;;;38.22;23.63;;;8.20;99.90;;;;;;5014247;28;20092;-74
2020/12/13 07:53:51;;;;;;;37.55;23.40;;;8.20;99.90;;;;;;5014344;28;20111;-75
2020/12/13 07:56:25;;;;;;;35.55;22.70;;;8.30;99.90;;;;;;5014438;28;20092;-76
2020/12/13 07:58:52;;;;;;;36.85;23.70;;;8.30;99.90;;;;;;5014006;28;20056;-76
2020/12/13 08:01:19;;;;;;;35.55;21.85;;;8.40;99.90;;;;;;5013529;28;20045;-77
2020/12/13 08:03:46;;;;;;;37.05;20.60;;;8.40;99.90;;;;;;5013641;28;20081;-76
2020/12/13 08:06:15;;;;;;;34.05;19.65;;;8.50;99.90;;;;;;5013807;28;20160;-77
2020/12/13 08:08:42;;;;;;;33.97;21.80;;;8.50;99.90;;;;;;5014259;28;20065;-75
2020/12/13 08:11:11;;;;;;;31.40;18.88;;;8.50;99.90;;;;;;5013561;28;20050;-76
2020/12/13 08:13:49;;;;;;;30.65;18.75;;;8.60;99.90;;;;;;5013745;28;20133;-76
2020/12/13 08:16:16;;;;;;;35.72;19.83;;;8.70;99.90;;;;;;5013831;28;20050;-75
2020/12/13 08:18:45;;;;;;;26.67;18.40;;;8.60;99.90;;;;;;5013420;28;20078;-74
2020/12/13 08:21:17;;;;;;;29.48;18.95;;;8.60;99.90;;;;;;5013084;28;20081;-75
2020/12/13 08:23:47;;;;;;;31.07;19.83;;;8.60;99.90;;;;;;5014329;28;20594;-75
2020/12/13 08:26:15;;;;;;;38.88;19.17;;;8.70;99.90;;;;;;5014847;28;20307;-75
2020/12/13 08:28:45;;;;;;;28.48;19.25;;;8.80;99.90;;;;;;5013763;28;20141;-76
2020/12/13 08:31:16;;;;;;;35.17;18.42;;;8.90;99.90;;;;;;5013601;28;20073;-75
2020/12/13 08:33:43;;;;;;;29.40;17.47;;;8.80;99.90;;;;;;5013166;28;20147;-74
2020/12/13 08:36:27;;;;;;;32.47;17.20;;;8.90;99.90;;;;;;5013077;28;20085;-73
2020/12/13 08:39:03;;;;;;;26.13;16.23;;;8.90;99.90;;;;;;5013008;28;20113;-75
2020/12/13 08:41:29;;;;;;;38.42;17.98;;;8.80;99.90;;;;;;5012749;28;20050;-75
2020/12/13 08:43:56;;;;;;;29.38;18.05;;;8.80;99.90;;;;;;5012668;28;20050;-75
2020/12/13 08:46:37;;;;;;;35.63;18.52;;;8.80;99.90;;;;;;5011732;28;20082;-74
2020/12/13 08:49:04;;;;;;;31.65;18.48;;;8.80;99.90;;;;;;5012653;28;20049;-75
2020/12/13 08:51:31;;;;;;;32.47;18.15;;;8.80;99.90;;;;;;5012524;28;20145;-75
2020/12/13 08:54:02;;;;;;;29.08;18.35;;;8.80;99.90;;;;;;5012759;28;20128;-75
2020/12/13 08:56:34;;;;;;;28.88;18.83;;;8.90;99.90;;;;;;5012861;28;20445;-75
2020/12/13 08:59:02;;;;;;;28.52;17.75;;;8.90;99.90;;;;;;5013064;28;20072;-75
2020/12/13 09:01:31;;;;;;;31.60;16.70;;;8.90;99.90;;;;;;5012748;28;20422;-75
2020/12/13 09:03:58;;;;;;;30.45;18.02;;;8.90;99.90;;;;;;5012453;28;20100;-75
2020/12/13 09:06:26;;;;;;;29.95;17.52;;;8.80;99.90;;;;;;5012722;28;20074;-76
2020/12/13 09:08:53;;;;;;;31.42;18.95;;;8.80;99.90;;;;;;5012503;28;20092;-76
2020/12/13 09:11:29;;;;;;;27.27;17.05;;;8.80;99.90;;;;;;5012387;28;20470;-75
2020/12/13 09:13:56;;;;;;;30.05;17.63;;;8.60;99.90;;;;;;5012573;28;20350;-74
2020/12/13 09:16:27;;;;;;;33.33;18.00;;;8.60;99.90;;;;;;5012934;28;20045;-76
2020/12/13 09:19:06;;;;;;;28.20;17.42;;;8.80;99.90;;;;;;5012875;28;20490;-75
2020/12/13 09:21:49;;;;;;;29.63;16.83;;;8.90;99.90;;;;;;5012050;28;20132;-75
2020/12/13 09:24:17;;;;;;;25.13;15.35;;;8.90;99.90;;;;;;5012879;28;20100;-76
2020/12/13 09:26:58;;;;;;;24.88;14.48;;;9.00;99.90;;;;;;5012553;28;20144;-75
2020/12/13 09:29:25;;;;;;;22.90;13.60;;;9.10;99.90;;;;;;5012445;28;20081;-76
2020/12/13 09:31:51;;;;;;;20.67;12.77;;;9.20;99.90;;;;;;5011938;28;20573;-75
2020/12/13 09:34:18;;;;;;;17.70;12.45;;;9.20;99.90;;;;;;5012359;28;20134;-76
2020/12/13 09:36:45;;;;;;;19.23;11.70;;;9.20;99.90;;;;;;5012518;28;20226;-76
2020/12/13 09:39:11;;;;;;;16.90;11.85;;;9.30;99.90;;;;;;5013640;28;20137;-76
2020/12/13 09:41:37;;;;;;;16.20;10.57;;;9.30;99.90;;;;;;5012576;28;20081;-75
2020/12/13 09:44:04;;;;;;;16.58;10.77;;;9.30;99.90;;;;;;5015185;28;20137;-77
2020/12/13 09:46:30;;;;;;;16.45;9.82;;;9.40;99.90;;;;;;5014711;28;20046;-76
2020/12/13 09:48:57;;;;;;;18.73;10.25;;;9.50;99.90;;;;;;5011916;28;20474;-74
2020/12/13 09:51:24;;;;;;;17.50;10.23;;;9.50;99.90;;;;;;5012328;28;20128;-73
2020/12/13 09:53:50;;;;;;;13.48;9.13;;;9.50;99.90;;;;;;5012278;28;20132;-73
2020/12/13 09:56:17;;;;;;;15.45;9.57;;;9.50;99.90;;;;;;5011917;28;20601;-74
2020/12/13 09:58:45;;;;;;;15.20;9.75;;;9.50;99.90;;;;;;5014217;28;20153;-74
2020/12/13 10:01:12;;;;;;;13.68;7.80;;;9.60;99.90;;;;;;5015636;28;20136;-75
2020/12/13 10:03:39;;;;;;;11.23;7.82;;;9.60;99.90;;;;;;5016109;28;20092;-73
2020/12/13 10:09:07;;;;;;;11.02;7.07;;;9.60;99.90;;;;;;5005237;28;20053;-74
2020/12/13 10:11:37;;;;;;;10.32;6.82;;;9.50;99.90;;;;;;5015734;28;20057;-75
2020/12/13 10:14:04;;;;;;;10.10;7.00;;;9.50;99.90;;;;;;5015726;28;20596;-75
2020/12/13 10:16:30;;;;;;;12.75;6.60;;;9.50;99.90;;;;;;5015878;28;20081;-75
2020/12/13 10:18:57;;;;;;;11.93;6.50;;;9.50;99.90;;;;;;5015430;28;20050;-75
2020/12/13 10:21:25;;;;;;;12.75;6.80;;;9.50;99.90;;;;;;5015474;28;20054;-74
2020/12/13 10:23:51;;;;;;;8.65;6.60;;;9.40;99.90;;;;;;5015574;28;20081;-75
2020/12/13 10:26:22;;;;;;;10.43;6.40;;;9.40;99.90;;;;;;5015558;28;20046;-77
2020/12/13 10:28:48;;;;;;;11.57;6.75;;;9.50;99.90;;;;;;5015404;28;20529;-76
2020/12/13 10:31:14;;;;;;;12.55;6.30;;;9.50;99.90;;;;;;5015189;28;20132;-75
2020/12/13 10:33:41;;;;;;;8.63;6.60;;;9.50;99.90;;;;;;5013560;28;20132;-74
2020/12/13 10:36:09;;;;;;;10.98;6.65;;;9.60;99.90;;;;;;5013986;28;20049;-74
2020/12/13 10:38:35;;;;;;;13.13;7.15;;;9.70;99.90;;;;;;5014498;28;20155;-75
2020/12/13 10:41:04;;;;;;;11.05;6.50;;;9.80;99.90;;;;;;5015016;28;20128;-74
2020/12/13 10:43:32;;;;;;;11.88;7.38;;;9.80;99.90;;;;;;5013995;28;20088;-75
2020/12/13 10:45:58;;;;;;;12.38;7.78;;;9.80;99.90;;;;;;5014584;28;20134;-75
2020/12/13 10:48:25;;;;;;;11.23;6.53;;;9.90;99.90;;;;;;5016191;28;20077;-77
2020/12/13 10:50:51;;;;;;;13.88;8.00;;;10.00;99.90;;;;;;5014454;28;20503;-77
2020/12/13 10:53:17;;;;;;;14.30;7.32;;;10.00;99.90;;;;;;5021521;28;20124;-77
2020/12/13 10:55:44;;;;;;;17.90;8.93;;;10.00;99.90;;;;;;5034890;28;20132;-76
2020/12/13 10:58:10;;;;;;;10.65;7.35;;;10.00;99.90;;;;;;5019181;28;20072;-77
2020/12/13 11:00:37;;;;;;;9.95;6.90;;;10.00;99.90;;;;;;5013718;28;20129;-77
2020/12/13 11:03:04;;;;;;;11.15;7.13;;;10.00;99.90;;;;;;5013765;28;20115;-78
2020/12/13 11:05:30;;;;;;;12.05;7.28;;;10.00;99.90;;;;;;5013238;28;20129;-78
2020/12/13 11:07:57;;;;;;;12.43;7.63;;;10.10;99.90;;;;;;5013148;28;20645;-78
2020/12/13 11:10:23;;;;;;;14.55;7.10;;;10.10;99.90;;;;;;5012238;28;20062;-78
2020/12/13 11:12:50;;;;;;;12.95;7.20;;;10.10;99.90;;;;;;5019277;28;20046;-77
2020/12/13 11:15:16;;;;;;;13.10;8.20;;;10.10;99.90;;;;;;5013100;28;20042;-76
2020/12/13 11:17:43;;;;;;;8.57;6.93;;;10.10;99.90;;;;;;5019241;28;20140;-77
2020/12/13 11:20:10;;;;;;;9.18;6.43;;;10.10;99.90;;;;;;5030873;28;20058;-77
2020/12/13 11:22:36;;;;;;;9.60;6.93;;;10.20;99.90;;;;;;5019787;28;20522;-78
2020/12/13 11:25:03;;;;;;;8.57;5.82;;;10.30;99.90;;;;;;5025840;28;20455;-77
2020/12/13 11:27:29;;;;;;;9.43;6.25;;;10.30;99.90;;;;;;5033171;28;20128;-77
2020/12/13 11:29:55;;;;;;;7.38;5.57;;;10.30;99.90;;;;;;5033303;28;20135;-77
2020/12/13 11:32:24;;;;;;;10.45;5.68;;;10.30;99.90;;;;;;5027434;28;20137;-77
2020/12/13 11:34:51;;;;;;;11.82;5.25;;;10.20;99.90;;;;;;5033610;28;20489;-77
2020/12/13 11:37:18;;;;;;;9.57;5.53;;;10.30;99.90;;;;;;5031853;28;20439;-76
2020/12/13 11:39:44;;;;;;;10.63;5.35;;;10.30;99.90;;;;;;5033841;28;20160;-76
2020/12/13 11:42:11;;;;;;;8.32;5.05;;;10.40;99.90;;;;;;5033580;28;20052;-75
2020/12/13 11:44:37;;;;;;;8.63;5.40;;;10.50;99.90;;;;;;5028506;28;20045;-77
2020/12/13 11:47:04;;;;;;;9.60;5.65;;;10.40;99.90;;;;;;5033995;28;20077;-77
2020/12/13 11:49:30;;;;;;;11.95;5.82;;;10.30;99.90;;;;;;5032472;28;20133;-76
2020/12/13 11:51:57;;;;;;;10.73;7.72;;;10.20;99.90;;;;;;5027946;28;20080;-76
2020/12/13 11:54:24;;;;;;;11.77;8.32;;;10.20;99.90;;;;;;5033321;28;20136;-77
2020/12/13 11:56:50;;;;;;;8.18;6.30;;;10.20;99.90;;;;;;5033052;28;20137;-78
2020/12/13 11:59:16;;;;;;;11.13;7.18;;;10.10;99.90;;;;;;5033766;28;20137;-78
2020/12/13 12:01:44;;;;;;;8.60;5.80;;;10.00;99.90;;;;;;5034683;28;20133;-78
2020/12/13 12:04:10;;;;;;;9.07;5.82;;;10.00;99.90;;;;;;5035342;28;20128;-77
2020/12/13 12:06:37;;;;;;;7.13;4.40;;;10.00;99.90;;;;;;5027979;28;20128;-77
2020/12/13 12:09:05;;;;;;;8.90;3.70;;;9.90;99.90;;;;;;5032801;28;20128;-77
2020/12/13 12:11:31;;;;;;;7.70;3.60;;;10.00;99.90;;;;;;5032878;28;20103;-78
2020/12/13 12:13:57;;;;;;;4.63;3.47;;;10.00;99.90;;;;;;5028722;28;20041;-78
2020/12/13 12:16:26;;;;;;;7.25;3.38;;;10.10;99.90;;;;;;5033835;28;20102;-79
2020/12/13 12:18:52;;;;;;;7.35;3.88;;;10.10;99.90;;;;;;5033648;28;20500;-78
2020/12/13 12:21:20;;;;;;;8.55;4.30;;;10.20;99.90;;;;;;5032700;28;20137;-77
2020/12/13 12:23:47;;;;;;;8.38;3.90;;;10.30;99.90;;;;;;5033048;28;20429;-78
2020/12/13 12:26:14;;;;;;;6.22;3.40;;;10.30;99.90;;;;;;5032803;28;20049;-77
2020/12/13 12:28:40;;;;;;;6.05;3.20;;;10.30;99.90;;;;;;5034282;28;20500;-78
2020/12/13 12:31:07;;;;;;;5.30;3.13;;;10.40;99.90;;;;;;5034398;28;20128;-78
2020/12/13 12:33:33;;;;;;;7.45;3.70;;;10.40;99.90;;;;;;5034936;28;20137;-79
2020/12/13 12:35:59;;;;;;;4.90;3.40;;;10.40;99.90;;;;;;5031524;28;20140;-76
2020/12/13 12:38:26;;;;;;;5.13;2.30;;;10.40;99.90;;;;;;5030375;28;20129;-76
2020/12/13 12:40:52;;;;;;;5.05;2.75;;;10.50;99.90;;;;;;5032516;28;20128;-77
2020/12/13 12:43:19;;;;;;;6.10;3.03;;;10.60;99.90;;;;;;5032792;28;20080;-76
2020/12/13 12:45:46;;;;;;;5.95;2.75;;;10.60;99.90;;;;;;5002204;28;20484;-78
2020/12/13 12:48:15;;;;;;;6.07;2.33;;;10.70;99.90;;;;;;5033559;28;20080;-77
2020/12/13 12:50:42;;;;;;;3.03;2.00;;;10.70;99.90;;;;;;5011461;28;20050;-77